Flight Track Log - Related Links

Times and Time Zones

All times are in EDT time to prevent confusion due to time zone crossing. See the DAL1092 flight status page for this flight to view local times or setup timezone preferences in your user account.

Time Position Orientation Groundspeed Altitude Reporting Facility
EDT Latitude Longitude Course Direction KTS MPH feet Rate Location/Type
Mon 09:52:33 AM 33.6500 -84.3167 North 223 257 3,200  Level Atlanta TRACON
Mon 09:53:33 AM 33.6667 -84.2333 76° East 279 321 5,900 2,650 Climbing Atlanta TRACON
Mon 09:54:00 AM 33.8617 -84.1950 320° Northwest  Level FlightAware Approximate
Mon 09:54:33 AM 33.7333 -84.1833 32° Northeast 306 352 8,500  Level Atlanta TRACON
Mon 09:55:00 AM 33.9738 -84.2667 North  Level FlightAware Approximate
Mon 09:56:00 AM 34.1074 -84.2667 North  Level FlightAware Approximate
Mon 09:56:48 AM 33.9025 -84.2389 345° North 283 326 10,600  Level Atlanta Center
Mon 09:57:00 AM 34.2410 -84.2667 North  Level FlightAware Approximate
Mon 09:57:48 AM 33.9797 -84.2792 337° Northwest 288 331 12,600  Level Atlanta Center
Mon 09:58:48 AM 34.0842 -84.2794 360° North 328 377 13,900 1,650 Climbing Atlanta Center
Mon 09:59:48 AM 34.1928 -84.2800 360° North 371 427 15,900 2,000 Climbing Atlanta Center
Mon 10:00:48 AM 34.3053 -84.2803 360° North 390 449 17,900 1,850 Climbing Atlanta Center
Mon 10:01:48 AM 34.4181 -84.2503 12° North 405 466 19,600 1,550 Climbing Atlanta Center
Mon 10:02:48 AM 34.5308 -84.2253 10° North 410 472 21,000 1,450 Climbing Atlanta Center
Mon 10:03:48 AM 34.6500 -84.1953 12° North 425 489 22,500 1,350 Climbing Atlanta Center
Mon 10:04:48 AM 34.7667 -84.1728 North 425 489 23,700 1,100 Climbing Atlanta Center
Mon 10:05:48 AM 34.8919 -84.1425 11° North 440 506 24,700 950 Climbing Atlanta Center
Mon 10:06:48 AM 35.0214 -84.1097 12° North 452 520 25,600 900 Climbing Atlanta Center
Mon 10:07:48 AM 35.1528 -84.0769 12° North 464 534 26,500 750 Climbing Atlanta Center
Mon 10:08:48 AM 35.2906 -84.0464 10° North 485 558 27,100 750 Climbing Atlanta Center
Mon 10:09:48 AM 35.4283 -84.0133 11° North 498 573 28,000 950 Climbing Atlanta Center
Mon 10:10:48 AM 35.5639 -83.9775 12° North 498 573 29,000 950 Climbing Atlanta Center
Mon 10:11:48 AM 35.7017 -83.9417 12° North 503 579 29,900 850 Climbing Atlanta Center
Mon 10:12:48 AM 35.8414 -83.9106 10° North 503 579 30,700 750 Climbing Atlanta Center
Mon 10:13:48 AM 35.9808 -83.8489 20° North 509 586 31,400 650 Climbing Atlanta Center
Mon 10:14:48 AM 36.1100 -83.7664 27° Northeast 515 593 32,000 360 Climbing Atlanta Center
Mon 10:15:28 AM 36.1811 -83.7194 28° Northeast 523 602 32,000 412 Level Indianapolis Center
Mon 10:16:30 AM 36.3108 -83.6378 27° Northeast 524 603 32,700 919 Climbing Indianapolis Center
Mon 10:17:32 AM 36.4653 -83.5392 27° Northeast 522 601 33,900 1,065 Climbing Indianapolis Center
Mon 10:18:34 AM 36.5850 -83.4639 27° Northeast 526 605 34,900 726 Climbing Indianapolis Center
Mon 10:19:36 AM 36.7061 -83.3642 33° Northeast 525 604 35,400 629 Climbing Indianapolis Center
Mon 10:20:38 AM 36.8433 -83.2353 37° Northeast 523 602 36,200 726 Climbing Indianapolis Center
Mon 10:21:40 AM 36.9628 -83.1231 37° Northeast 526 605 36,900 387 Climbing Indianapolis Center
Mon 10:22:42 AM 37.0839 -83.0097 37° Northeast 530 610 37,000 48 Climbing Indianapolis Center
Mon 10:23:44 AM 37.2006 -82.8950 38° Northeast 527 606 37,000  Level Indianapolis Center
Mon 10:24:46 AM 37.3178 -82.7828 37° Northeast 528 608 37,000  Level Indianapolis Center
Mon 10:25:48 AM 37.4339 -82.6689 38° Northeast 528 608 37,000  Level Indianapolis Center
Mon 10:26:50 AM 37.5533 -82.5600 36° Northeast 528 608 37,000  Level Indianapolis Center
Mon 10:27:52 AM 37.6711 -82.4497 37° Northeast 527 606 37,000  Level Indianapolis Center
Mon 10:28:54 AM 37.8103 -82.3211 36° Northeast 530 610 37,000  Level Indianapolis Center
Mon 10:29:56 AM 37.9297 -82.2086 37° Northeast 534 615 37,000  Level Indianapolis Center
Mon 10:30:58 AM 38.0467 -82.0989 36° Northeast 531 611 37,000  Level Indianapolis Center
Mon 10:32:01 AM 38.1647 -81.9872 37° Northeast 530 610 37,000  Level Indianapolis Center
Mon 10:33:03 AM 38.2836 -81.8756 36° Northeast 531 611 37,000  Level Indianapolis Center
Mon 10:34:05 AM 38.4025 -81.7619 37° Northeast 533 613 37,000  Level Indianapolis Center
Mon 10:35:07 AM 38.5436 -81.6272 37° Northeast 531 611 37,000  Level Indianapolis Center
Mon 10:36:09 AM 38.6608 -81.5147 37° Northeast 531 611 37,000  Level Indianapolis Center
Mon 10:37:11 AM 38.7800 -81.4011 37° Northeast 531 611 37,000  Level Indianapolis Center
Mon 10:38:13 AM 38.9133 -81.2714 37° Northeast 532 612 37,000  Level Indianapolis Center
Mon 10:39:15 AM 39.0300 -81.1578 37° Northeast 525 604 37,000  Level Indianapolis Center
Mon 10:40:17 AM 39.1475 -81.0436 37° Northeast 530 610 37,000  Level Indianapolis Center
Mon 10:41:19 AM 39.2625 -80.9294 38° Northeast 524 603 37,000  Level Indianapolis Center
Mon 10:42:21 AM 39.3803 -80.8153 37° Northeast 528 608 37,000  Level Indianapolis Center
Mon 10:43:23 AM 39.4961 -80.6994 38° Northeast 527 606 37,000  Level Indianapolis Center
Mon 10:44:25 AM 39.6139 -80.5817 38° Northeast 532 612 37,000  Level Indianapolis Center
Mon 10:45:18 AM 39.7272 -80.4697 37° Northeast 538 619 37,000  Level Cleveland Center
Mon 10:46:18 AM 39.8419 -80.3561 37° Northeast 532 612 37,000  Level Cleveland Center
Mon 10:47:18 AM 39.9603 -80.2364 38° Northeast 532 612 37,000  Level Cleveland Center
Mon 10:48:18 AM 40.0786 -80.1192 37° Northeast 532 612 37,000  Level Cleveland Center
Mon 10:49:18 AM 40.1969 -79.9986 38° Northeast 539 620 37,000  Level Cleveland Center
Mon 10:50:18 AM 40.3153 -79.8778 38° Northeast 534 615 37,000  Level Cleveland Center
Mon 10:51:18 AM 40.4331 -79.7594 37° Northeast 534 615 37,000  Level Cleveland Center
Mon 10:52:18 AM 40.5489 -79.6403 38° Northeast 534 615 37,000  Level Cleveland Center
Mon 10:53:18 AM 40.6667 -79.5183 38° Northeast 534 615 37,000  Level Cleveland Center
Mon 10:54:18 AM 40.7822 -79.3986 38° Northeast 534 615 37,000  Level Cleveland Center
Mon 10:55:18 AM 40.8978 -79.2783 38° Northeast 534 615 37,000  Level Cleveland Center
Mon 10:56:18 AM 41.0111 -79.1578 39° Northeast 534 615 37,000 -600 Level Cleveland Center
Mon 10:57:18 AM 41.1261 -79.0367 38° Northeast 534 615 35,800 -1,350 Descending Cleveland Center
Mon 10:58:18 AM 41.2433 -78.9181 37° Northeast 529 609 34,300 -900 Descending Cleveland Center
Mon 10:59:18 AM 41.3581 -78.7933 39° Northeast 536 617 34,000 -150 Descending Cleveland Center
Mon 11:00:18 AM 41.4728 -78.6681 39° Northeast 536 617 34,000 -450 Level Cleveland Center
Mon 11:01:18 AM 41.5894 -78.5425 39° Northeast 536 617 33,100 -800 Descending Cleveland Center
Mon 11:03:18 AM 41.8267 -78.2869 39° Northeast 536 617 31,600 -1,067 Descending Cleveland Center
Mon 11:04:18 AM 41.9511 -78.1542 38° Northeast 536 617 29,900 -2,000 Descending Cleveland Center
Mon 11:05:18 AM 42.0489 -78.0469 39° Northeast 509 586 27,600 -2,400 Descending Cleveland Center
Mon 11:06:18 AM 42.1400 -77.9369 42° Northeast 455 524 25,100 -2,150 Descending Cleveland Center
Mon 11:07:18 AM 42.2189 -77.8269 46° Northeast 422 486 23,300 -1,050 Descending Cleveland Center
Mon 11:08:18 AM 42.2975 -77.7169 46° Northeast 403 464 23,000 -150 Descending Cleveland Center
Mon 11:09:18 AM 42.3842 -77.5978 45° Northeast 410 472 23,000  Level Cleveland Center
Mon 11:10:18 AM 42.4686 -77.4839 45° Northeast 415 478 23,000  Level Cleveland Center
Mon 11:11:18 AM 42.5450 -77.3758 46° Northeast 424 488 23,000 -1,000 Level Cleveland Center
Mon 11:12:18 AM 42.6272 -77.2617 46° Northeast 424 488 21,000 -2,000 Descending Cleveland Center
Mon 11:13:18 AM 42.7053 -77.1531 46° Northeast 417 480 19,000 -2,410 Descending Cleveland Center
Mon 11:14:15 AM 42.7822 -77.0492 45° Northeast 386 444 16,300 -2,493 Descending Boston Center
Mon 11:15:40 AM 42.8903 -76.9014 45° Northeast 372 428 13,100 -2,152 Descending Boston Center
Mon 11:16:40 AM 42.9606 -76.8072 44° Northeast 364 419 11,100 -1,041 Descending Boston Center
Mon 11:17:41 AM 43.0333 -76.7072 45° Northeast 357 411 11,000 -50 Descending Boston Center
Mon 11:18:41 AM 43.1014 -76.6153 45° Northeast 357 411 11,000 -50 Level Boston Center
Mon 11:19:42 AM 43.1756 -76.5206 43° Northeast 351 404 10,900 -541 Descending Boston Center
Mon 11:20:43 AM 43.2125 -76.4206 63° Northeast 294 338 9,900 -1,328 Descending Boston Center
Mon 11:21:44 AM 43.2017 -76.3142 98° East 290 334 8,200 -1,636 Descending Boston Center
Mon 11:22:44 AM 43.1886 -76.2022 99° East 293 337 6,600 -1,636 Descending Boston Center
Mon 11:23:45 AM 43.1775 -76.0961 98° East 273 314 4,900 -1,465 Descending Boston Center
Mon 11:24:51 AM 43.1811 -75.9853 87° East 241 277 3,500 -1,087 Descending Boston Center
Mon 11:25:52 AM 43.1428 -75.9375 138° Southeast 184 212 2,600 -694 Descending Boston Center
Mon 11:26:52 AM 43.1186 -75.9817 233° Southwest 136 157 2,100 -595 Descending Boston Center
Mon 11:27:53 AM 43.1106 -76.0353 258° West 134 154 1,400 -694 Descending Boston Center
Mon 11:28:53 AM 43.1092 -76.0864 268° West 136 157 700 -700 Descending Boston Center

Login

Don't have an account? Register now (free) for customized features, flight alerts, and more!